Time;durP1;ratioP1;P1;durP2;ratioP2;P2;SDS_P1;SDS_P2;PMS_P1;PMS_P2;Temp;Humidity;BMP_temperature;BMP_pressure;BME280_temperature;BME280_humidity;BME280_pressure;Samples;Min_cycle;Max_cycle;Signal;HPM_P1;HPM_P2
2021/10/13 00:00:32;;;;;;;10.53;6.20;;;;;;;;;;5035520;28;20398;-43
2021/10/13 00:02:58;;;;;;;10.77;5.37;;;;;;;;;;5035212;28;20488;-44
2021/10/13 00:05:24;;;;;;;11.80;6.20;;;;;;;;;;5035370;28;20413;-45
2021/10/13 00:07:50;;;;;;;8.63;5.50;;;;;;;;;;5035260;28;20402;-43
2021/10/13 00:10:16;;;;;;;10.27;5.90;;;;;;;;;;5035269;28;20458;-44
2021/10/13 00:12:42;;;;;;;8.43;5.97;;;;;;;;;;5035021;28;20468;-46
2021/10/13 00:15:10;;;;;;;6.53;5.03;;;;;;;;;;5035224;28;20402;-47
2021/10/13 00:17:36;;;;;;;7.78;5.85;;;;;;;;;;5035243;28;20768;-43
2021/10/13 00:20:02;;;;;;;11.85;6.97;;;;;;;;;;5035214;28;20167;-43
2021/10/13 00:22:28;;;;;;;7.77;7.00;;;;;;;;;;5034786;28;20625;-44
2021/10/13 00:24:54;;;;;;;15.35;6.63;;;;;;;;;;5035140;28;20428;-43
2021/10/13 00:27:20;;;;;;;11.77;7.03;;;;;;;;;;5034987;28;20258;-44
2021/10/13 00:29:46;;;;;;;9.67;5.10;;;;;;;;;;5034950;28;20458;-44
2021/10/13 00:32:12;;;;;;;10.43;5.90;;;;;;;;;;5034720;28;20421;-44
2021/10/13 00:34:38;;;;;;;7.47;6.47;;;;;;;;;;5034828;28;20401;-43
2021/10/13 00:37:04;;;;;;;8.02;5.82;;;;;;;;;;5034794;28;20478;-43
2021/10/13 00:39:30;;;;;;;12.67;6.20;;;;;;;;;;5035096;28;20203;-44
2021/10/13 00:41:56;;;;;;;7.13;5.90;;;;;;;;;;5034657;28;20450;-43
2021/10/13 00:44:22;;;;;;;11.37;6.43;;;;;;;;;;5034750;28;20464;-44
2021/10/13 00:46:48;;;;;;;7.33;5.40;;;;;;;;;;5034978;28;20414;-46
2021/10/13 00:49:15;;;;;;;9.27;5.87;;;;;;;;;;5033459;28;20403;-43
2021/10/13 00:51:40;;;;;;;11.23;5.90;;;;;;;;;;5034228;28;20441;-44
2021/10/13 00:54:08;;;;;;;17.23;7.20;;;;;;;;;;5034474;28;20763;-46
2021/10/13 00:56:34;;;;;;;7.63;5.60;;;;;;;;;;5034579;28;20410;-43
2021/10/13 00:59:00;;;;;;;18.20;7.10;;;;;;;;;;5034502;28;20494;-44
2021/10/13 01:01:29;;;;;;;11.37;5.63;;;;;;;;;;5033912;28;20414;-44
2021/10/13 01:04:14;;;;;;;16.70;7.22;;;;;;;;;;5033543;28;20415;-45
2021/10/13 01:06:59;;;;;;;14.38;7.28;;;;;;;;;;5034024;28;20267;-43
2021/10/13 01:09:26;;;;;;;9.07;6.10;;;;;;;;;;5034213;28;20175;-44
2021/10/13 01:12:11;;;;;;;22.00;8.70;;;;;;;;;;5033940;28;20798;-44
2021/10/13 01:14:37;;;;;;;12.13;7.67;;;;;;;;;;5034116;28;20597;-43
2021/10/13 01:17:12;;;;;;;17.10;9.80;;;;;;;;;;5034091;28;20402;-44
2021/10/13 01:19:47;;;;;;;21.60;8.80;;;;;;;;;;5034065;28;20420;-43
2021/10/13 01:22:16;;;;;;;10.90;8.65;;;;;;;;;;5033837;28;20428;-43
2021/10/13 01:24:55;;;;;;;18.05;8.40;;;;;;;;;;5034461;28;20544;-44
2021/10/13 01:27:30;;;;;;;13.30;8.13;;;;;;;;;;5033923;28;20171;-44
2021/10/13 01:29:57;;;;;;;23.95;10.20;;;;;;;;;;5033821;28;20205;-43
2021/10/13 01:32:25;;;;;;;16.65;9.98;;;;;;;;;;5033546;28;20253;-47
2021/10/13 01:34:53;;;;;;;13.98;8.80;;;;;;;;;;5033822;28;20632;-47
2021/10/13 01:37:21;;;;;;;16.85;10.13;;;;;;;;;;5033645;28;20246;-44
2021/10/13 01:39:49;;;;;;;18.25;9.48;;;;;;;;;;5033728;28;20175;-44
2021/10/13 01:42:17;;;;;;;14.40;11.30;;;;;;;;;;5033377;28;20219;-44
2021/10/13 01:44:46;;;;;;;16.02;11.00;;;;;;;;;;5033630;28;20179;-44
2021/10/13 01:47:14;;;;;;;13.30;9.48;;;;;;;;;;5033475;28;20251;-44
2021/10/13 01:49:41;;;;;;;25.60;10.70;;;;;;;;;;5033416;28;20201;-44
2021/10/13 01:52:08;;;;;;;17.88;10.93;;;;;;;;;;5032979;28;20715;-43
2021/10/13 01:54:36;;;;;;;17.50;10.10;;;;;;;;;;5033439;28;20663;-43
2021/10/13 01:57:03;;;;;;;26.73;11.83;;;;;;;;;;5033321;28;20678;-44
2021/10/13 01:59:29;;;;;;;23.17;12.10;;;;;;;;;;5033074;28;20402;-47
2021/10/13 02:01:58;;;;;;;23.23;13.60;;;;;;;;;;5033027;28;20454;-44
2021/10/13 02:04:25;;;;;;;18.58;11.65;;;;;;;;;;5033210;28;20239;-44
2021/10/13 02:06:52;;;;;;;20.38;12.20;;;;;;;;;;5033569;28;20207;-43
2021/10/13 02:09:21;;;;;;;31.47;13.30;;;;;;;;;;5033052;28;20223;-45
2021/10/13 02:11:59;;;;;;;24.10;13.47;;;;;;;;;;5032317;28;20936;-44
2021/10/13 02:14:26;;;;;;;19.57;13.00;;;;;;;;;;5033075;28;20403;-44
2021/10/13 02:16:53;;;;;;;19.60;13.37;;;;;;;;;;5032896;28;20406;-46
2021/10/13 02:19:20;;;;;;;18.53;12.60;;;;;;;;;;5032974;28;20407;-44
2021/10/13 02:21:50;;;;;;;24.47;13.57;;;;;;;;;;5032690;28;20834;-48
2021/10/13 02:24:18;;;;;;;28.83;12.63;;;;;;;;;;5032836;28;20391;-44
2021/10/13 02:26:46;;;;;;;19.80;12.50;;;;;;;;;;5033055;28;20403;-44
2021/10/13 02:29:17;;;;;;;19.13;11.80;;;;;;;;;;5032711;28;20398;-43
2021/10/13 02:31:44;;;;;;;15.57;11.53;;;;;;;;;;5032428;28;20855;-44
2021/10/13 02:34:10;;;;;;;18.37;11.90;;;;;;;;;;5032643;28;20396;-44
2021/10/13 02:36:36;;;;;;;17.10;11.43;;;;;;;;;;5032554;28;20493;-44
2021/10/13 02:39:03;;;;;;;16.93;12.90;;;;;;;;;;5032446;28;20945;-43
2021/10/13 02:41:29;;;;;;;15.90;13.70;;;;;;;;;;5032413;28;20410;-47
2021/10/13 02:43:55;;;;;;;22.40;11.60;;;;;;;;;;5032356;28;20414;-43
2021/10/13 02:46:24;;;;;;;21.20;11.73;;;;;;;;;;5032530;28;20961;-44
2021/10/13 02:48:54;;;;;;;22.13;12.07;;;;;;;;;;5032409;28;20928;-45
2021/10/13 02:51:24;;;;;;;17.00;12.53;;;;;;;;;;5032030;28;20455;-46
2021/10/13 02:53:50;;;;;;;24.93;11.80;;;;;;;;;;5032442;28;20503;-44
2021/10/13 02:56:19;;;;;;;16.40;10.87;;;;;;;;;;5032313;28;20945;-43
2021/10/13 02:59:00;;;;;;;15.20;10.27;;;;;;;;;;5032367;28;20407;-45
2021/10/13 03:01:28;;;;;;;22.33;12.27;;;;;;;;;;5032065;28;20406;-43
2021/10/13 03:03:58;;;;;;;12.03;10.00;;;;;;;;;;5031901;28;20407;-43
2021/10/13 03:06:31;;;;;;;15.20;10.63;;;;;;;;;;5032215;28;20399;-44
2021/10/13 03:08:58;;;;;;;13.90;11.20;;;;;;;;;;5032150;28;20461;-46
2021/10/13 03:11:25;;;;;;;14.60;11.30;;;;;;;;;;5031365;28;20460;-44
2021/10/13 03:13:53;;;;;;;14.00;10.00;;;;;;;;;;5031860;28;20416;-44
2021/10/13 03:16:20;;;;;;;19.47;12.33;;;;;;;;;;5031918;28;20395;-44
2021/10/13 03:18:46;;;;;;;16.85;11.18;;;;;;;;;;5031895;28;20407;-47
2021/10/13 03:21:12;;;;;;;16.10;11.87;;;;;;;;;;5031878;28;20521;-45
2021/10/13 03:23:38;;;;;;;16.03;10.33;;;;;;;;;;5031699;28;20894;-46
2021/10/13 03:26:11;;;;;;;19.67;11.53;;;;;;;;;;5031893;28;20405;-48
2021/10/13 03:28:38;;;;;;;16.67;11.45;;;;;;;;;;5031737;28;20411;-44
2021/10/13 03:31:05;;;;;;;17.52;11.02;;;;;;;;;;5031610;28;20558;-44
2021/10/13 03:33:32;;;;;;;15.00;11.37;;;;;;;;;;5031785;28;20525;-46
2021/10/13 03:35:58;;;;;;;19.52;11.23;;;;;;;;;;5031730;28;20398;-43
2021/10/13 03:38:24;;;;;;;16.30;10.98;;;;;;;;;;5031698;28;20172;-43
2021/10/13 03:40:50;;;;;;;18.43;12.27;;;;;;;;;;5031679;28;20175;-44
2021/10/13 03:43:16;;;;;;;13.83;11.23;;;;;;;;;;5031469;28;20429;-44
2021/10/13 03:45:42;;;;;;;18.03;12.73;;;;;;;;;;5031539;28;20895;-44
2021/10/13 03:48:08;;;;;;;24.73;12.65;;;;;;;;;;5031622;28;20413;-44
2021/10/13 03:50:34;;;;;;;20.63;13.67;;;;;;;;;;5031579;28;20200;-45
2021/10/13 03:53:00;;;;;;;19.30;12.93;;;;;;;;;;5031237;28;20441;-46
2021/10/13 03:55:26;;;;;;;21.23;13.23;;;;;;;;;;5030358;28;20505;-47
2021/10/13 03:57:52;;;;;;;22.10;14.80;;;;;;;;;;5031519;28;20402;-43
2021/10/13 04:00:19;;;;;;;27.87;13.90;;;;;;;;;;5031476;28;20407;-44
2021/10/13 04:02:45;;;;;;;23.67;13.55;;;;;;;;;;5031252;28;20481;-45
2021/10/13 04:05:11;;;;;;;20.60;13.40;;;;;;;;;;5031571;28;20172;-44
2021/10/13 04:07:38;;;;;;;21.02;14.70;;;;;;;;;;5031428;28;20190;-44
2021/10/13 04:10:05;;;;;;;29.17;14.57;;;;;;;;;;5031464;28;20262;-44
2021/10/13 04:12:30;;;;;;;21.95;13.65;;;;;;;;;;5031191;28;20188;-44
2021/10/13 04:14:56;;;;;;;22.80;14.83;;;;;;;;;;5031345;28;20172;-43
2021/10/13 04:17:22;;;;;;;24.50;15.10;;;;;;;;;;5031398;28;20433;-44
2021/10/13 04:19:48;;;;;;;23.20;15.33;;;;;;;;;;5031412;28;20497;-44
2021/10/13 04:22:14;;;;;;;28.03;14.20;;;;;;;;;;5031659;28;20426;-43
2021/10/13 04:24:40;;;;;;;28.67;15.87;;;;;;;;;;5035133;28;20404;-44
2021/10/13 04:27:06;;;;;;;30.33;16.07;;;;;;;;;;5034964;28;20437;-46
2021/10/13 04:29:32;;;;;;;25.60;16.13;;;;;;;;;;5034964;28;20497;-47
2021/10/13 04:31:58;;;;;;;37.00;17.03;;;;;;;;;;5034705;28;20422;-44
2021/10/13 04:34:24;;;;;;;27.03;16.40;;;;;;;;;;5034976;28;20402;-43
2021/10/13 04:36:50;;;;;;;27.23;15.80;;;;;;;;;;5034871;28;20400;-43
2021/10/13 04:39:16;;;;;;;36.43;16.77;;;;;;;;;;5034885;28;20246;-44
2021/10/13 04:41:42;;;;;;;26.57;15.53;;;;;;;;;;5033396;28;20483;-44
2021/10/13 04:44:08;;;;;;;23.03;14.67;;;;;;;;;;5034570;28;20406;-44
2021/10/13 04:46:34;;;;;;;27.50;14.73;;;;;;;;;;5034649;28;20415;-45
2021/10/13 04:49:00;;;;;;;21.27;14.53;;;;;;;;;;5034651;28;20194;-44
2021/10/13 04:51:26;;;;;;;22.50;14.38;;;;;;;;;;5034339;28;20494;-44
2021/10/13 04:53:52;;;;;;;25.80;14.70;;;;;;;;;;5034491;28;20176;-45
2021/10/13 04:56:18;;;;;;;28.57;15.47;;;;;;;;;;5034497;28;20898;-47
2021/10/13 04:58:44;;;;;;;27.30;16.23;;;;;;;;;;5034378;28;20432;-47
2021/10/13 05:01:10;;;;;;;22.13;14.03;;;;;;;;;;5034460;28;20446;-43
2021/10/13 05:03:37;;;;;;;31.33;16.80;;;;;;;;;;5034227;28;20437;-43
2021/10/13 05:06:03;;;;;;;20.87;14.00;;;;;;;;;;5034364;28;20782;-45
2021/10/13 05:08:29;;;;;;;20.23;13.80;;;;;;;;;;5034300;28;20434;-46
2021/10/13 05:10:55;;;;;;;20.50;13.53;;;;;;;;;;5034136;28;20853;-44
2021/10/13 05:13:21;;;;;;;25.87;15.60;;;;;;;;;;5033865;28;20476;-44
2021/10/13 05:15:47;;;;;;;26.57;16.80;;;;;;;;;;5034152;28;20395;-43
2021/10/13 05:18:13;;;;;;;19.33;14.47;;;;;;;;;;5034367;28;20397;-44
2021/10/13 05:20:39;;;;;;;25.20;15.87;;;;;;;;;;5034118;28;20913;-44
2021/10/13 05:23:05;;;;;;;34.23;16.53;;;;;;;;;;5033771;28;20426;-43
2021/10/13 05:25:31;;;;;;;24.27;16.10;;;;;;;;;;5033926;28;20429;-44
2021/10/13 05:27:57;;;;;;;27.40;17.27;;;;;;;;;;5033836;28;20411;-43
2021/10/13 05:30:23;;;;;;;21.60;14.83;;;;;;;;;;5033883;28;20980;-44
2021/10/13 05:32:49;;;;;;;29.00;16.30;;;;;;;;;;5033571;28;20451;-44
2021/10/13 05:35:15;;;;;;;25.80;16.67;;;;;;;;;;5033307;28;20430;-44
2021/10/13 05:37:41;;;;;;;21.67;14.30;;;;;;;;;;5033754;28;20410;-47
2021/10/13 05:40:07;;;;;;;27.63;16.50;;;;;;;;;;5033620;28;20572;-46
2021/10/13 05:42:33;;;;;;;25.97;15.97;;;;;;;;;;5033374;28;20430;-46
2021/10/13 05:44:59;;;;;;;24.43;15.30;;;;;;;;;;5033626;28;20457;-47
2021/10/13 05:47:25;;;;;;;24.20;15.80;;;;;;;;;;5033526;28;20945;-43
2021/10/13 05:49:51;;;;;;;26.77;15.90;;;;;;;;;;5033538;28;20488;-43
2021/10/13 05:52:17;;;;;;;30.47;15.93;;;;;;;;;;5033171;28;20589;-44
2021/10/13 05:54:43;;;;;;;22.90;16.33;;;;;;;;;;5033363;28;20411;-43
2021/10/13 05:59:40;;;;;;;24.55;15.20;;;;;;;;;;5029184;28;20467;-50
2021/10/13 06:02:06;;;;;;;19.03;13.57;;;;;;;;;;5032819;28;20671;-50
2021/10/13 06:04:32;;;;;;;19.50;13.27;;;;;;;;;;5032694;28;20425;-50
2021/10/13 06:06:58;;;;;;;21.53;15.50;;;;;;;;;;5033365;28;20847;-50
2021/10/13 06:09:24;;;;;;;20.93;13.40;;;;;;;;;;5033031;28;20438;-50
2021/10/13 06:11:50;;;;;;;25.70;15.33;;;;;;;;;;5032802;28;20411;-51
2021/10/13 06:14:15;;;;;;;24.80;14.30;;;;;;;;;;5032970;28;20404;-51
2021/10/13 06:16:41;;;;;;;18.97;14.37;;;;;;;;;;5033022;28;20402;-50
2021/10/13 06:19:07;;;;;;;23.80;14.10;;;;;;;;;;5032893;28;20422;-51
2021/10/13 06:21:34;;;;;;;19.90;12.70;;;;;;;;;;5032903;28;20403;-53
2021/10/13 06:24:00;;;;;;;19.00;13.77;;;;;;;;;;5033084;28;20872;-51
2021/10/13 06:26:26;;;;;;;21.57;14.00;;;;;;;;;;5032739;28;20403;-49
2021/10/13 06:28:51;;;;;;;27.83;17.53;;;;;;;;;;5032693;28;20431;-48
2021/10/13 06:31:18;;;;;;;23.37;14.10;;;;;;;;;;5032709;28;20464;-50
2021/10/13 06:33:44;;;;;;;27.50;15.10;;;;;;;;;;5032517;28;20410;-50
2021/10/13 06:36:10;;;;;;;25.07;13.67;;;;;;;;;;5031371;28;20506;-51
2021/10/13 06:38:37;;;;;;;21.83;14.13;;;;;;;;;;5032612;28;20805;-48
2021/10/13 06:41:06;;;;;;;24.63;13.80;;;;;;;;;;5032499;28;20914;-52
2021/10/13 06:43:32;;;;;;;22.97;14.03;;;;;;;;;;5032376;28;20482;-50
2021/10/13 06:45:57;;;;;;;25.80;15.20;;;;;;;;;;5031865;28;20887;-50
2021/10/13 06:48:23;;;;;;;33.70;15.23;;;;;;;;;;5032339;28;20425;-50
2021/10/13 06:50:50;;;;;;;24.87;13.97;;;;;;;;;;5032303;28;20462;-51
2021/10/13 06:53:17;;;;;;;21.17;12.57;;;;;;;;;;5032167;28;20430;-50
2021/10/13 06:55:46;;;;;;;31.17;14.13;;;;;;;;;;5032255;28;20419;-50
2021/10/13 06:58:12;;;;;;;26.30;13.50;;;;;;;;;;5032124;28;20441;-52
2021/10/13 07:00:38;;;;;;;19.30;13.27;;;;;;;;;;5032251;28;20404;-52
2021/10/13 07:03:04;;;;;;;22.63;13.30;;;;;;;;;;5032025;28;20411;-50
2021/10/13 07:05:30;;;;;;;21.47;12.30;;;;;;;;;;5032198;28;20458;-50
2021/10/13 07:07:56;;;;;;;24.13;13.43;;;;;;;;;;5032007;28;20424;-50
2021/10/13 07:10:22;;;;;;;27.77;13.17;;;;;;;;;;5031970;28;20982;-50
2021/10/13 07:12:48;;;;;;;25.57;13.30;;;;;;;;;;5031909;28;20903;-49
2021/10/13 07:15:14;;;;;;;23.10;12.93;;;;;;;;;;5032054;28;20771;-50
2021/10/13 07:17:41;;;;;;;21.40;12.93;;;;;;;;;;5031932;28;20424;-50
2021/10/13 07:20:08;;;;;;;20.47;12.83;;;;;;;;;;5032009;28;20408;-51
2021/10/13 07:22:34;;;;;;;20.60;13.10;;;;;;;;;;5031738;28;20409;-50
2021/10/13 07:25:00;;;;;;;24.93;13.70;;;;;;;;;;5031804;28;20409;-50
2021/10/13 07:27:28;;;;;;;21.93;13.80;;;;;;;;;;5031796;28;20887;-50
2021/10/13 07:29:58;;;;;;;20.33;12.30;;;;;;;;;;5031737;28;20947;-52
2021/10/13 07:32:29;;;;;;;21.70;13.10;;;;;;;;;;5031636;28;20397;-50
2021/10/13 07:34:54;;;;;;;20.40;13.57;;;;;;;;;;5031783;28;20410;-50
2021/10/13 07:37:20;;;;;;;19.97;13.23;;;;;;;;;;5031578;28;20399;-50
2021/10/13 07:39:47;;;;;;;28.83;14.60;;;;;;;;;;5031771;28;20443;-49
2021/10/13 07:42:14;;;;;;;22.77;12.07;;;;;;;;;;5031737;28;20403;-48
2021/10/13 07:44:40;;;;;;;23.37;12.30;;;;;;;;;;5031745;28;20415;-48
2021/10/13 07:47:06;;;;;;;23.60;12.83;;;;;;;;;;5031643;28;20435;-47
2021/10/13 07:49:32;;;;;;;19.20;12.10;;;;;;;;;;5031635;28;20623;-50
2021/10/13 07:51:58;;;;;;;23.90;12.90;;;;;;;;;;5031423;28;20937;-49
2021/10/13 07:54:24;;;;;;;31.13;13.10;;;;;;;;;;5031797;28;20854;-47
2021/10/13 07:56:50;;;;;;;22.30;13.10;;;;;;;;;;5031883;28;20737;-50
2021/10/13 07:59:16;;;;;;;19.90;11.93;;;;;;;;;;5035467;28;20464;-46
2021/10/13 08:01:42;;;;;;;20.33;12.10;;;;;;;;;;5035521;28;20398;-46
2021/10/13 08:04:08;;;;;;;23.23;12.90;;;;;;;;;;5034487;28;20786;-47
2021/10/13 08:06:34;;;;;;;25.77;12.07;;;;;;;;;;5035915;28;20432;-49
2021/10/13 08:09:00;;;;;;;20.30;13.10;;;;;;;;;;5036193;28;20421;-49
2021/10/13 08:11:26;;;;;;;20.60;12.47;;;;;;;;;;5035777;28;20449;-49
2021/10/13 08:13:52;;;;;;;19.67;10.67;;;;;;;;;;5035707;28;20397;-50
2021/10/13 08:16:19;;;;;;;18.20;11.17;;;;;;;;;;5034579;28;20430;-50
2021/10/13 08:18:45;;;;;;;24.30;12.90;;;;;;;;;;5036230;28;20842;-51
2021/10/13 08:21:11;;;;;;;24.90;12.33;;;;;;;;;;5035457;28;20834;-50
2021/10/13 08:23:37;;;;;;;18.90;11.23;;;;;;;;;;5035287;28;20453;-51
2021/10/13 08:26:03;;;;;;;17.47;10.20;;;;;;;;;;5035225;28;20683;-50
2021/10/13 08:28:30;;;;;;;16.80;11.43;;;;;;;;;;5034917;28;20427;-51
2021/10/13 08:30:56;;;;;;;23.07;12.60;;;;;;;;;;5034922;28;20486;-51
2021/10/13 08:33:22;;;;;;;21.93;11.50;;;;;;;;;;5035253;28;20482;-51
2021/10/13 08:35:48;;;;;;;19.83;11.30;;;;;;;;;;5033725;28;20405;-49
2021/10/13 08:38:14;;;;;;;20.57;10.87;;;;;;;;;;5034554;28;20778;-49
2021/10/13 08:40:41;;;;;;;22.63;12.33;;;;;;;;;;5034866;28;20445;-50
2021/10/13 08:43:07;;;;;;;23.20;12.90;;;;;;;;;;5034512;28;20452;-50
2021/10/13 08:45:34;;;;;;;24.43;11.57;;;;;;;;;;5033503;28;20479;-50
2021/10/13 08:48:00;;;;;;;18.80;11.37;;;;;;;;;;5014808;28;20430;-51
2021/10/13 08:50:27;;;;;;;16.93;9.80;;;;;;;;;;5014641;28;20485;-52
2021/10/13 08:53:02;;;;;;;19.30;10.67;;;;;;;;;;5014511;28;20401;-51
2021/10/13 08:55:28;;;;;;;15.90;11.57;;;;;;;;;;5013586;28;20395;-52
2021/10/13 08:58:10;;;;;;;21.63;11.57;;;;;;;;;;5014515;28;20439;-52
2021/10/13 09:00:36;;;;;;;20.60;12.03;;;;;;;;;;5014701;28;20411;-51
2021/10/13 09:03:02;;;;;;;16.10;12.10;;;;;;;;;;5014434;28;20422;-52
2021/10/13 09:05:28;;;;;;;19.33;11.50;;;;;;;;;;5014514;28;20405;-50
2021/10/13 09:07:56;;;;;;;16.57;11.10;;;;;;;;;;5014319;28;20423;-50
2021/10/13 09:10:32;;;;;;;16.07;11.27;;;;;;;;;;5013499;28;20823;-50
2021/10/13 09:12:59;;;;;;;14.90;10.30;;;;;;;;;;5014326;28;20440;-50
2021/10/13 09:15:27;;;;;;;14.60;10.57;;;;;;;;;;5014344;28;20754;-50
2021/10/13 09:17:57;;;;;;;15.43;11.23;;;;;;;;;;5014306;28;20439;-51
2021/10/13 09:20:26;;;;;;;16.07;10.97;;;;;;;;;;5014338;28;20435;-50
2021/10/13 09:22:55;;;;;;;20.87;11.03;;;;;;;;;;5014055;28;20409;-51
2021/10/13 09:25:21;;;;;;;20.80;12.10;;;;;;;;;;5014230;28;20409;-49
2021/10/13 09:27:47;;;;;;;20.20;12.00;;;;;;;;;;5013853;28;20423;-51
2021/10/13 09:30:13;;;;;;;14.93;12.20;;;;;;;;;;5014057;28;20493;-52
2021/10/13 09:32:43;;;;;;;21.13;12.77;;;;;;;;;;5013954;28;20405;-51
2021/10/13 09:35:09;;;;;;;20.07;12.23;;;;;;;;;;5014374;28;20465;-51
2021/10/13 09:37:45;;;;;;;16.30;12.30;;;;;;;;;;5013863;28;20417;-52
2021/10/13 09:40:11;;;;;;;19.37;12.10;;;;;;;;;;5014033;28;20414;-51
2021/10/13 09:42:38;;;;;;;17.80;12.10;;;;;;;;;;5013638;28;20412;-51
2021/10/13 09:45:05;;;;;;;13.90;10.97;;;;;;;;;;5014010;28;21005;-50
2021/10/13 09:47:34;;;;;;;18.33;11.40;;;;;;;;;;5013720;28;20924;-50
2021/10/13 09:50:01;;;;;;;15.70;9.40;;;;;;;;;;5023632;28;20821;-51
2021/10/13 09:52:31;;;;;;;17.90;11.40;;;;;;;;;;5033273;28;20419;-51
2021/10/13 09:55:02;;;;;;;14.60;10.53;;;;;;;;;;5033320;28;20406;-51
2021/10/13 09:57:29;;;;;;;12.70;9.70;;;;;;;;;;5033150;28;20409;-50
2021/10/13 10:00:00;;;;;;;12.20;9.87;;;;;;;;;;5033379;28;20416;-50
2021/10/13 10:02:27;;;;;;;13.47;11.10;;;;;;;;;;5033001;28;20484;-51
2021/10/13 10:04:54;;;;;;;17.27;10.53;;;;;;;;;;5033259;28;20406;-51
2021/10/13 10:07:20;;;;;;;15.30;10.23;;;;;;;;;;5032861;28;20493;-50
2021/10/13 10:10:06;;;;;;;16.20;9.70;;;;;;;;;;5033030;28;20759;-50
2021/10/13 10:12:51;;;;;;;13.67;9.73;;;;;;;;;;5033069;28;20406;-52
2021/10/13 10:15:27;;;;;;;18.00;10.17;;;;;;;;;;5032946;28;20448;-52
2021/10/13 10:17:53;;;;;;;14.80;11.17;;;;;;;;;;5032719;28;20433;-52
2021/10/13 10:20:41;;;;;;;12.23;8.80;;;;;;;;;;5032995;28;20446;-51
2021/10/13 10:23:26;;;;;;;14.07;9.53;;;;;;;;;;5032727;28;20378;-52
2021/10/13 10:25:52;;;;;;;12.00;7.90;;;;;;;;;;5032858;28;20409;-52
2021/10/13 10:28:37;;;;;;;14.67;7.80;;;;;;;;;;5031260;28;20417;-51
2021/10/13 10:31:21;;;;;;;11.47;8.13;;;;;;;;;;5030177;28;20993;-52
2021/10/13 10:33:50;;;;;;;10.90;7.90;;;;;;;;;;5032443;28;20399;-51
2021/10/13 10:36:16;;;;;;;11.13;7.37;;;;;;;;;;5032471;28;20391;-51
2021/10/13 10:38:49;;;;;;;10.17;7.10;;;;;;;;;;5032266;28;20420;-51
2021/10/13 10:41:15;;;;;;;13.00;6.87;;;;;;;;;;5032487;28;20409;-51
2021/10/13 10:43:40;;;;;;;13.90;7.33;;;;;;;;;;5031777;28;20401;-51
2021/10/13 10:46:06;;;;;;;18.30;7.07;;;;;;;;;;5031609;28;20410;-51
2021/10/13 10:48:46;;;;;;;8.30;6.20;;;;;;;;;;5032364;28;20476;-53
2021/10/13 10:51:12;;;;;;;10.37;6.00;;;;;;;;;;5032172;28;20542;-52
2021/10/13 10:53:49;;;;;;;9.83;6.53;;;;;;;;;;5032428;28;20417;-52
2021/10/13 10:56:17;;;;;;;11.80;5.97;;;;;;;;;;5032361;28;20452;-51
2021/10/13 10:59:03;;;;;;;16.93;7.90;;;;;;;;;;5032149;28;20604;-51
2021/10/13 11:01:29;;;;;;;11.87;6.27;;;;;;;;;;5032193;28;20432;-51
2021/10/13 11:03:55;;;;;;;8.87;6.00;;;;;;;;;;5032426;28;20487;-51
2021/10/13 11:06:22;;;;;;;7.63;5.60;;;;;;;;;;5029423;28;20469;-51
2021/10/13 11:08:53;;;;;;;6.27;4.57;;;;;;;;;;5031939;28;20531;-51
2021/10/13 11:11:19;;;;;;;5.97;4.40;;;;;;;;;;5031886;28;20492;-52
2021/10/13 11:14:01;;;;;;;6.00;4.63;;;;;;;;;;5031741;28;20551;-51
2021/10/13 11:16:27;;;;;;;7.17;5.13;;;;;;;;;;5032094;28;20922;-51
2021/10/13 11:18:53;;;;;;;10.23;5.30;;;;;;;;;;5031856;28;20919;-51
2021/10/13 11:21:19;;;;;;;13.63;6.27;;;;;;;;;;5030478;28;20515;-50
2021/10/13 11:23:46;;;;;;;9.90;5.10;;;;;;;;;;5030386;28;20534;-51
2021/10/13 11:26:12;;;;;;;9.10;4.97;;;;;;;;;;5031150;28;20386;-51
2021/10/13 11:28:39;;;;;;;9.03;4.73;;;;;;;;;;5031586;28;20423;-51
2021/10/13 11:31:07;;;;;;;7.90;4.83;;;;;;;;;;5031682;28;20957;-51
2021/10/13 11:33:33;;;;;;;14.53;5.00;;;;;;;;;;5031259;28;20412;-51
2021/10/13 11:36:03;;;;;;;9.90;4.30;;;;;;;;;;5032007;28;20374;-52
2021/10/13 11:38:32;;;;;;;9.33;4.30;;;;;;;;;;5031659;28;20509;-51
2021/10/13 11:41:24;;;;;;;7.20;4.17;;;;;;;;;;5031720;28;20775;-51
2021/10/13 11:43:50;;;;;;;10.60;3.90;;;;;;;;;;5031299;28;20447;-52
2021/10/13 11:46:17;;;;;;;9.10;4.97;;;;;;;;;;5031680;28;20437;-51
2021/10/13 11:48:43;;;;;;;8.43;4.73;;;;;;;;;;5031883;28;20424;-51
2021/10/13 11:51:10;;;;;;;7.07;4.23;;;;;;;;;;5031513;28;20857;-51
2021/10/13 11:53:37;;;;;;;6.87;4.80;;;;;;;;;;5031332;28;20496;-52
2021/10/13 11:56:13;;;;;;;13.30;5.87;;;;;;;;;;5031503;28;20783;-51
2021/10/13 11:58:39;;;;;;;5.50;5.00;;;;;;;;;;5057660;22;20496;-45
2021/10/13 12:01:05;;;;;;;9.70;5.27;;;;;;;;;;5011911;28;20403;-44
2021/10/13 12:03:32;;;;;;;7.33;5.40;;;;;;;;;;5011254;28;20931;-44
2021/10/13 12:05:58;;;;;;;13.10;6.23;;;;;;;;;;5011865;28;20425;-44
2021/10/13 12:08:29;;;;;;;10.50;5.37;;;;;;;;;;5009922;28;20918;-44
2021/10/13 12:11:08;;;;;;;7.13;5.37;;;;;;;;;;5011696;28;20541;-44
2021/10/13 12:13:39;;;;;;;10.30;6.53;;;;;;;;;;5011622;28;20465;-44
2021/10/13 12:16:05;;;;;;;10.70;7.67;;;;;;;;;;5011824;28;20401;-44
2021/10/13 12:18:33;;;;;;;13.93;7.47;;;;;;;;;;5011335;28;20424;-48
2021/10/13 12:21:01;;;;;;;15.10;9.00;;;;;;;;;;5011643;28;20491;-45
2021/10/13 12:23:28;;;;;;;10.00;7.37;;;;;;;;;;5011600;28;20400;-45
2021/10/13 12:25:54;;;;;;;10.70;7.10;;;;;;;;;;5011800;28;20480;-44
2021/10/13 12:28:20;;;;;;;12.60;7.20;;;;;;;;;;5011546;28;21041;-44
2021/10/13 12:30:47;;;;;;;12.03;7.27;;;;;;;;;;5011610;28;20432;-44
2021/10/13 12:33:16;;;;;;;6.87;5.53;;;;;;;;;;5011421;28;20391;-46
2021/10/13 12:35:43;;;;;;;10.93;7.87;;;;;;;;;;5011563;28;20893;-44
2021/10/13 12:38:11;;;;;;;11.53;8.77;;;;;;;;;;5011491;28;20428;-45
2021/10/13 12:40:38;;;;;;;10.67;8.47;;;;;;;;;;5011538;28;20435;-47
2021/10/13 12:43:20;;;;;;;11.40;9.20;;;;;;;;;;5011305;28;20446;-44
2021/10/13 12:45:46;;;;;;;9.20;8.40;;;;;;;;;;5014160;28;20410;-44
2021/10/13 12:48:16;;;;;;;12.50;8.63;;;;;;;;;;5014775;28;20952;-44
2021/10/13 12:51:01;;;;;;;12.10;8.37;;;;;;;;;;5014963;28;20511;-44
2021/10/13 12:53:27;;;;;;;10.07;9.03;;;;;;;;;;5014722;28;20397;-44
2021/10/13 12:55:53;;;;;;;11.57;9.13;;;;;;;;;;5014928;28;20920;-44
2021/10/13 12:58:24;;;;;;;14.47;8.90;;;;;;;;;;5014519;28;20495;-45
2021/10/13 13:00:50;;;;;;;10.90;8.90;;;;;;;;;;5014857;28;20830;-46
2021/10/13 13:03:16;;;;;;;10.73;8.50;;;;;;;;;;5014346;28;20410;-47
2021/10/13 13:05:42;;;;;;;14.40;8.40;;;;;;;;;;5014643;28;20402;-44
2021/10/13 13:08:08;;;;;;;15.70;8.63;;;;;;;;;;5014474;28;20417;-44
2021/10/13 13:10:34;;;;;;;9.77;7.90;;;;;;;;;;5014501;28;20563;-45
2021/10/13 13:13:01;;;;;;;7.30;6.33;;;;;;;;;;5014300;28;20399;-45
2021/10/13 13:15:28;;;;;;;13.87;8.13;;;;;;;;;;5014460;28;20402;-45
2021/10/13 13:17:54;;;;;;;12.27;6.47;;;;;;;;;;5014673;28;20484;-45
2021/10/13 13:20:20;;;;;;;9.50;5.70;;;;;;;;;;5014468;28;20380;-45
2021/10/13 13:22:46;;;;;;;6.47;5.87;;;;;;;;;;5014294;28;20414;-46
2021/10/13 13:25:12;;;;;;;7.43;4.97;;;;;;;;;;5014270;28;20429;-47
2021/10/13 13:27:38;;;;;;;11.90;4.93;;;;;;;;;;5014056;28;20404;-45
2021/10/13 13:30:04;;;;;;;4.70;4.30;;;;;;;;;;5014238;28;20456;-44
2021/10/13 13:32:32;;;;;;;12.13;4.80;;;;;;;;;;5013604;28;20402;-48
2021/10/13 13:34:58;;;;;;;9.00;4.27;;;;;;;;;;5014094;28;20400;-44
2021/10/13 13:37:24;;;;;;;7.53;4.77;;;;;;;;;;5014043;28;20410;-44
2021/10/13 13:39:50;;;;;;;9.13;4.60;;;;;;;;;;5013963;28;20440;-44
2021/10/13 13:42:16;;;;;;;6.73;5.00;;;;;;;;;;5013752;28;20409;-44
2021/10/13 13:44:42;;;;;;;4.80;4.40;;;;;;;;;;5013962;28;20463;-45
2021/10/13 13:47:08;;;;;;;5.53;3.93;;;;;;;;;;5013942;28;20411;-44
2021/10/13 13:49:34;;;;;;;5.40;4.37;;;;;;;;;;5013814;28;20441;-45
2021/10/13 13:52:00;;;;;;;7.10;3.40;;;;;;;;;;5013708;28;20452;-45
2021/10/13 13:54:26;;;;;;;7.57;3.53;;;;;;;;;;5013771;28;20413;-45
2021/10/13 13:56:52;;;;;;;8.10;3.90;;;;;;;;;;5013227;28;20395;-44
2021/10/13 13:59:18;;;;;;;5.60;3.33;;;;;;;;;;5012145;28;20443;-45
2021/10/13 14:01:44;;;;;;;3.97;3.07;;;;;;;;;;5013352;28;20458;-48
2021/10/13 14:04:10;;;;;;;7.17;3.13;;;;;;;;;;5013333;28;20402;-45
2021/10/13 14:06:36;;;;;;;3.67;3.30;;;;;;;;;;5013357;28;20403;-47
2021/10/13 14:09:03;;;;;;;5.77;3.43;;;;;;;;;;5013507;28;20438;-44
2021/10/13 14:11:29;;;;;;;4.83;2.90;;;;;;;;;;5013231;28;20458;-44
2021/10/13 14:13:55;;;;;;;5.37;2.93;;;;;;;;;;5013210;28;20463;-44
2021/10/13 14:16:21;;;;;;;4.97;3.50;;;;;;;;;;5013538;28;20431;-45
2021/10/13 14:18:47;;;;;;;3.17;2.60;;;;;;;;;;5013240;28;20497;-44
2021/10/13 14:21:12;;;;;;;5.87;2.80;;;;;;;;;;5013229;28;20462;-43
2021/10/13 14:23:38;;;;;;;8.17;3.37;;;;;;;;;;5013002;28;20403;-45
2021/10/13 14:26:04;;;;;;;3.27;2.97;;;;;;;;;;5013083;28;20410;-44
2021/10/13 14:28:30;;;;;;;3.50;2.70;;;;;;;;;;5012921;28;20799;-45
2021/10/13 14:30:56;;;;;;;6.10;3.47;;;;;;;;;;5012875;28;20458;-45